createdAt,value
2018-03-14T00:00:36.104Z,86.96
2018-03-14T00:03:03.507Z,90.44
2018-03-14T00:05:30.906Z,87.47
2018-03-14T00:07:59.217Z,88.81
2018-03-14T00:10:26.610Z,88.04
2018-03-14T00:12:54.016Z,86.93
2018-03-14T00:15:21.827Z,86.22
2018-03-14T00:17:49.225Z,88.75
2018-03-14T00:20:16.700Z,85.23
2018-03-14T00:22:44.096Z,86.42
2018-03-14T00:25:11.561Z,88.53
2018-03-14T00:27:40.454Z,87.76
2018-03-14T00:30:07.852Z,90.36
2018-03-14T00:32:35.254Z,87.15
2018-03-14T00:35:02.630Z,88.28
2018-03-14T00:37:30.037Z,86.62
2018-03-14T00:39:57.478Z,87.94
2018-03-14T00:42:24.877Z,88.65
2018-03-14T00:44:52.284Z,87.99
2018-03-14T00:47:19.678Z,88.33
2018-03-14T00:49:47.080Z,88.46
2018-03-14T00:52:14.521Z,87.54
2018-03-14T00:54:41.930Z,87.15
2018-03-14T00:57:09.330Z,88.02
2018-03-14T00:59:36.802Z,88.00
2018-03-14T01:02:04.205Z,88.08
2018-03-14T01:04:31.713Z,87.93
2018-03-14T01:06:59.324Z,88.32
2018-03-14T01:09:27.789Z,88.97
2018-03-14T01:11:55.184Z,86.86
2018-03-14T01:14:23.372Z,87.98
2018-03-14T01:16:50.792Z,87.56
2018-03-14T01:19:18.279Z,86.82
2018-03-14T01:21:45.650Z,87.25
2018-03-14T01:24:13.144Z,88.10
2018-03-14T01:26:40.564Z,87.88
2018-03-14T01:29:08.010Z,86.16
2018-03-14T01:31:35.392Z,87.14
2018-03-14T01:34:02.857Z,85.70
2018-03-14T01:36:30.348Z,85.46
2018-03-14T01:38:57.914Z,84.78
2018-03-14T01:41:25.356Z,86.92
2018-03-14T01:43:53.023Z,85.86
2018-03-14T01:46:20.408Z,85.36
2018-03-14T01:48:47.798Z,86.33
2018-03-14T01:51:15.184Z,86.71
2018-03-14T01:53:42.591Z,86.12
2018-03-14T01:56:10.076Z,84.52
2018-03-14T01:58:37.487Z,86.17
2018-03-14T02:01:05.140Z,87.01
2018-03-14T02:03:32.753Z,84.61
2018-03-14T02:06:00.193Z,85.14
2018-03-14T02:08:27.599Z,84.68
2018-03-14T02:10:54.980Z,85.03
2018-03-14T02:13:22.382Z,85.03
2018-03-14T02:15:49.788Z,84.84
2018-03-14T02:18:17.187Z,85.16
2018-03-14T02:20:44.589Z,84.63
2018-03-14T02:23:12.141Z,84.28
2018-03-14T02:25:39.535Z,85.95
2018-03-14T02:28:06.983Z,83.86
2018-03-14T02:30:34.468Z,85.58
2018-03-14T02:33:01.968Z,84.72
2018-03-14T02:35:29.447Z,84.60
2018-03-14T02:37:57.050Z,84.17
2018-03-14T02:40:24.609Z,84.60
2018-03-14T02:42:52.019Z,84.20
2018-03-14T02:45:19.616Z,84.17
2018-03-14T02:47:47.093Z,84.46
2018-03-14T02:50:14.486Z,83.53
2018-03-14T02:52:42.078Z,83.92
2018-03-14T02:55:09.537Z,84.22
2018-03-14T02:57:36.913Z,84.33
2018-03-14T03:00:04.313Z,83.81
2018-03-14T03:02:31.776Z,84.03
2018-03-14T03:04:59.197Z,84.08
2018-03-14T03:07:26.674Z,83.84
2018-03-14T03:09:54.090Z,83.17
2018-03-14T03:12:21.521Z,83.87
2018-03-14T03:14:48.941Z,83.10
2018-03-14T03:17:16.317Z,84.40
2018-03-14T03:19:43.733Z,83.14
2018-03-14T03:22:11.123Z,83.58
2018-03-14T03:24:38.534Z,84.13
2018-03-14T03:27:05.948Z,83.39
2018-03-14T03:29:33.352Z,82.85
2018-03-14T03:32:00.792Z,82.82
2018-03-14T03:34:28.246Z,82.77
2018-03-14T03:36:55.632Z,83.55
2018-03-14T03:39:23.037Z,82.68
2018-03-14T03:41:50.493Z,82.44
2018-03-14T03:44:17.882Z,82.15
2018-03-14T03:46:45.263Z,82.60
2018-03-14T03:49:12.689Z,82.10
2018-03-14T03:51:40.081Z,82.01
2018-03-14T03:54:07.503Z,82.59
2018-03-14T03:56:34.908Z,82.53
2018-03-14T03:59:02.329Z,83.03
2018-03-14T04:01:29.720Z,82.62
2018-03-14T04:03:57.133Z,82.26
2018-03-14T04:06:24.526Z,82.94
2018-03-14T04:08:51.929Z,82.62
2018-03-14T04:11:19.323Z,82.97
2018-03-14T04:13:47.123Z,83.06
2018-03-14T04:16:14.524Z,83.44
2018-03-14T04:18:41.930Z,85.36
2018-03-14T04:21:09.313Z,83.60
2018-03-14T04:23:37.668Z,83.41
2018-03-14T04:26:05.076Z,83.05
2018-03-14T04:28:32.563Z,82.24
2018-03-14T04:30:59.996Z,83.80
2018-03-14T04:33:27.386Z,82.27
2018-03-14T04:35:54.971Z,83.01
2018-03-14T04:38:23.190Z,83.06
2018-03-14T04:40:50.662Z,81.74
2018-03-14T04:43:18.031Z,82.24
2018-03-14T04:45:45.424Z,81.76
2018-03-14T04:48:12.956Z,82.93
2018-03-14T04:50:40.683Z,83.40
2018-03-14T04:53:08.065Z,82.82
2018-03-14T04:55:35.462Z,82.60
2018-03-14T04:58:03.094Z,82.13
2018-03-14T05:00:30.586Z,81.64
2018-03-14T05:02:57.990Z,82.16
2018-03-14T05:05:25.445Z,82.78
2018-03-14T05:07:53.086Z,81.05
2018-03-14T05:10:20.775Z,82.49
2018-03-14T05:12:48.230Z,81.09
2018-03-14T05:15:15.625Z,83.02
2018-03-14T05:17:43.040Z,81.89
2018-03-14T05:20:10.619Z,81.64
2018-03-14T05:22:38.274Z,81.98
2018-03-14T05:25:05.861Z,81.37
2018-03-14T05:27:40.375Z,82.05
2018-03-14T05:30:07.797Z,82.21
2018-03-14T05:32:35.206Z,82.51
2018-03-14T05:35:02.825Z,82.16
2018-03-14T05:37:30.246Z,81.99
2018-03-14T05:39:57.629Z,82.30
2018-03-14T05:42:25.125Z,82.57
2018-03-14T05:44:53.309Z,83.18
2018-03-14T05:47:21.096Z,82.61
2018-03-14T05:49:48.610Z,82.82
2018-03-14T05:52:16.014Z,82.11
2018-03-14T05:54:43.490Z,82.90
2018-03-14T05:57:10.900Z,82.24
2018-03-14T05:59:38.316Z,83.75
2018-03-14T06:02:05.691Z,82.29
2018-03-14T06:04:33.083Z,82.58
2018-03-14T06:07:00.488Z,83.47
2018-03-14T06:09:27.879Z,82.59
2018-03-14T06:11:55.326Z,81.91
2018-03-14T06:14:23.513Z,81.58
2018-03-14T06:16:50.928Z,81.87
2018-03-14T06:19:18.353Z,82.99
2018-03-14T06:21:45.772Z,82.94
2018-03-14T06:24:13.165Z,82.85
2018-03-14T06:26:40.555Z,82.61
2018-03-14T06:29:07.961Z,81.46
2018-03-14T06:31:35.353Z,81.62
2018-03-14T06:34:02.909Z,81.87
2018-03-14T06:36:31.412Z,82.62
2018-03-14T06:38:58.846Z,82.54
2018-03-14T06:41:26.323Z,82.20
2018-03-14T06:43:53.731Z,82.58
2018-03-14T06:46:21.116Z,82.58
2018-03-14T06:48:48.553Z,82.24
2018-03-14T06:51:15.981Z,82.87
2018-03-14T06:53:43.384Z,82.92
2018-03-14T06:56:10.784Z,82.44
2018-03-14T06:58:49.738Z,82.33
2018-03-14T07:01:29.017Z,82.21
2018-03-14T07:04:08.080Z,82.00
2018-03-14T07:06:35.448Z,82.36
2018-03-14T07:09:02.845Z,82.16
2018-03-14T07:11:30.271Z,82.20
2018-03-14T07:13:57.657Z,81.89
2018-03-14T07:16:25.041Z,82.50
2018-03-14T07:18:52.456Z,82.49
2018-03-14T07:21:19.818Z,82.46
2018-03-14T07:23:48.095Z,82.09
2018-03-14T07:26:15.528Z,82.10
2018-03-14T07:28:42.936Z,82.15
2018-03-14T07:31:10.389Z,82.44
2018-03-14T07:33:37.801Z,83.35
2018-03-14T07:36:05.199Z,81.77
2018-03-14T07:38:32.580Z,81.31
2018-03-14T07:40:59.977Z,81.53
2018-03-14T07:43:27.408Z,81.67
2018-03-14T07:45:54.804Z,81.47
2018-03-14T07:48:22.281Z,80.67
2018-03-14T07:50:49.652Z,81.17
2018-03-14T07:53:17.042Z,81.17
2018-03-14T07:55:44.440Z,80.67
2018-03-14T07:58:15.173Z,79.96
2018-03-14T08:00:51.884Z,81.32
2018-03-14T08:03:30.372Z,79.75
2018-03-14T08:05:57.909Z,80.02
2018-03-14T08:08:26.487Z,80.08
2018-03-14T08:10:55.190Z,80.27
2018-03-14T08:13:22.974Z,80.87
2018-03-14T08:15:51.173Z,80.20
2018-03-14T08:18:18.551Z,80.51
2018-03-14T08:20:46.341Z,80.23
2018-03-14T08:23:13.742Z,79.89
2018-03-14T08:25:41.141Z,79.67
2018-03-14T08:28:08.547Z,79.61
2018-03-14T08:30:36.358Z,78.26
2018-03-14T08:33:03.943Z,78.22
2018-03-14T08:35:31.337Z,77.65
2018-03-14T08:37:58.767Z,77.03
2018-03-14T08:40:26.164Z,76.85
2018-03-14T08:42:54.100Z,77.14
2018-03-14T08:45:21.485Z,76.51
2018-03-14T08:47:48.884Z,76.44
2018-03-14T08:50:16.311Z,76.91
2018-03-14T08:52:43.766Z,74.54
2018-03-14T08:55:11.812Z,74.66
2018-03-14T08:57:39.701Z,75.00
2018-03-14T09:00:07.085Z,74.32
2018-03-14T09:02:34.622Z,74.51
2018-03-14T09:05:02.059Z,73.19
2018-03-14T09:07:29.452Z,73.19
2018-03-14T09:09:56.942Z,72.73
2018-03-14T09:12:24.600Z,73.05
2018-03-14T09:14:51.990Z,70.90
2018-03-14T09:17:19.444Z,70.23
2018-03-14T09:19:46.891Z,70.86
2018-03-14T09:22:14.379Z,71.47
2018-03-14T09:24:41.824Z,71.91
2018-03-14T09:27:09.348Z,68.63
2018-03-14T09:29:36.920Z,69.38
2018-03-14T09:32:04.361Z,70.79
2018-03-14T09:34:31.788Z,70.61
2018-03-14T09:36:59.180Z,72.64
2018-03-14T09:39:26.685Z,71.61
2018-03-14T09:41:54.603Z,67.91
2018-03-14T09:44:22.124Z,68.33
2018-03-14T09:46:49.666Z,69.66
2018-03-14T09:49:17.119Z,66.65
2018-03-14T09:51:44.544Z,67.15
2018-03-14T09:54:12.007Z,68.37
2018-03-14T09:56:39.386Z,68.81
2018-03-14T09:59:06.761Z,68.01
2018-03-14T10:01:40.884Z,68.13
2018-03-14T10:04:08.256Z,67.93
2018-03-14T10:06:36.131Z,67.67
2018-03-14T10:09:03.571Z,66.48
2018-03-14T10:11:31.097Z,67.71
2018-03-14T10:13:58.494Z,66.17
2018-03-14T10:16:25.922Z,63.97
2018-03-14T10:18:53.316Z,66.95
2018-03-14T10:21:20.852Z,63.83
2018-03-14T10:23:48.249Z,62.23
2018-03-14T10:26:15.661Z,63.59
2018-03-14T10:28:43.060Z,64.96
2018-03-14T10:31:10.532Z,64.23
2018-03-14T10:33:37.927Z,63.98
2018-03-14T10:36:05.340Z,64.62
2018-03-14T10:38:32.921Z,65.17
2018-03-14T10:41:01.370Z,62.39
2018-03-14T10:43:28.915Z,62.61
2018-03-14T10:45:56.292Z,60.91
2018-03-14T10:48:25.930Z,62.92
2018-03-14T10:50:53.471Z,60.84
2018-03-14T10:53:22.047Z,60.28
2018-03-14T10:55:49.441Z,59.99
2018-03-14T10:58:17.026Z,59.88
2018-03-14T11:00:50.083Z,59.78
2018-03-14T11:03:32.760Z,59.59
2018-03-14T11:06:00.265Z,59.73
2018-03-14T11:08:27.661Z,60.38
2018-03-14T11:10:56.025Z,59.28
2018-03-14T11:16:56.292Z,60.27
2018-03-14T11:19:23.776Z,61.30
2018-03-14T11:22:04.080Z,60.86
2018-03-14T11:24:31.564Z,60.25
2018-03-14T11:26:59.037Z,58.05
2018-03-14T11:29:26.564Z,59.08
2018-03-14T11:31:55.474Z,60.20
2018-03-14T11:34:22.871Z,61.20
2018-03-14T11:36:50.527Z,59.84
2018-03-14T11:39:17.985Z,58.43
2018-03-14T11:41:45.656Z,58.77
2018-03-14T11:44:13.117Z,60.40
2018-03-14T11:46:40.554Z,57.74
2018-03-14T11:49:08.650Z,58.69
2018-03-14T11:51:36.109Z,60.21
2018-03-14T11:54:03.527Z,63.12
2018-03-14T11:56:30.912Z,59.41
2018-03-14T11:58:58.336Z,57.00
2018-03-14T12:01:25.952Z,62.53
2018-03-14T12:03:53.357Z,61.09
2018-03-14T12:06:21.185Z,57.54
2018-03-14T12:08:48.599Z,56.58
2018-03-14T12:11:15.977Z,55.37
2018-03-14T12:13:43.424Z,55.54
2018-03-14T12:16:10.894Z,53.97
2018-03-14T12:18:38.342Z,53.39
2018-03-14T12:21:05.730Z,55.30
2018-03-14T12:23:33.116Z,53.10
2018-03-14T12:26:00.490Z,53.82
2018-03-14T12:28:29.811Z,51.45
2018-03-14T12:31:03.570Z,52.23
2018-03-14T12:33:31.179Z,50.48
2018-03-14T12:35:58.753Z,52.17
2018-03-14T12:38:26.430Z,53.61
2018-03-14T12:40:53.831Z,53.92
2018-03-14T12:43:21.323Z,49.16
2018-03-14T12:45:50.265Z,47.74
2018-03-14T12:48:17.653Z,44.90
2018-03-14T12:50:45.381Z,49.62
2018-03-14T12:53:12.752Z,47.29
2018-03-14T12:55:40.172Z,46.76
2018-03-14T12:58:07.555Z,48.25
2018-03-14T13:00:34.939Z,49.30
2018-03-14T13:03:02.316Z,49.67
2018-03-14T13:05:29.726Z,48.79
2018-03-14T13:07:57.119Z,49.53
2018-03-14T13:10:25.638Z,44.04
2018-03-14T13:12:53.034Z,43.93
2018-03-14T13:15:20.645Z,41.75
2018-03-14T13:17:48.113Z,42.00
2018-03-14T13:20:15.881Z,46.68
2018-03-14T13:22:43.255Z,45.67
2018-03-14T13:25:10.685Z,48.27
2018-03-14T13:27:38.118Z,50.24
2018-03-14T13:30:05.714Z,52.99
2018-03-14T13:32:33.142Z,45.92
2018-03-14T13:35:00.605Z,46.89
2018-03-14T13:37:28.166Z,47.62
2018-03-14T13:39:56.180Z,51.19
2018-03-14T13:42:23.729Z,50.51
2018-03-14T13:44:51.165Z,47.90
2018-03-14T13:47:18.788Z,49.95
2018-03-14T13:49:46.188Z,48.60
2018-03-14T13:52:13.624Z,47.26
2018-03-14T13:54:41.327Z,47.10
2018-03-14T13:57:08.763Z,48.51
2018-03-14T13:59:36.135Z,42.66
2018-03-14T14:02:03.547Z,46.91
2018-03-14T14:04:30.933Z,45.31
2018-03-14T14:06:58.334Z,45.62
2018-03-14T14:09:25.750Z,46.29
2018-03-14T14:11:53.110Z,46.28
2018-03-14T14:14:20.720Z,46.35
2018-03-14T14:16:48.084Z,44.79
2018-03-14T14:19:15.532Z,47.05
2018-03-14T14:21:42.910Z,46.45
2018-03-14T14:24:10.298Z,40.32
2018-03-14T14:26:37.682Z,39.41
2018-03-14T14:29:05.074Z,41.39
2018-03-14T14:31:32.458Z,39.43
2018-03-14T14:33:59.846Z,42.09
2018-03-14T14:36:27.241Z,37.78
2018-03-14T14:38:55.700Z,38.38
2018-03-14T14:41:23.090Z,40.41
2018-03-14T14:43:50.483Z,44.83
2018-03-14T14:46:18.174Z,41.35
2018-03-14T14:48:47.377Z,41.92
2018-03-14T14:51:14.758Z,44.21
2018-03-14T14:53:42.136Z,40.09
2018-03-14T14:56:09.569Z,40.46
2018-03-14T14:58:36.969Z,39.53
2018-03-14T15:01:04.354Z,37.10
2018-03-14T15:03:31.773Z,35.69
2018-03-14T15:05:59.190Z,38.87
2018-03-14T15:08:26.780Z,41.06
2018-03-14T15:10:54.202Z,43.44
2018-03-14T15:13:21.586Z,40.47
2018-03-14T15:15:48.998Z,40.71
2018-03-14T15:18:16.372Z,42.36
2018-03-14T15:20:43.781Z,42.66
2018-03-14T15:23:11.164Z,39.80
2018-03-14T15:25:38.561Z,41.03
2018-03-14T15:28:05.942Z,40.70
2018-03-14T15:30:33.317Z,41.93
2018-03-14T15:33:01.783Z,42.93
2018-03-14T15:35:29.177Z,44.33
2018-03-14T15:37:56.638Z,43.37
2018-03-14T15:40:24.013Z,42.91
2018-03-14T15:42:51.446Z,43.51
2018-03-14T15:45:18.837Z,42.97
2018-03-14T15:47:46.281Z,42.12
2018-03-14T15:50:13.681Z,42.01
2018-03-14T15:52:41.165Z,43.77
2018-03-14T15:55:08.633Z,45.48
2018-03-14T15:57:36.001Z,43.77
2018-03-14T16:00:03.397Z,42.93
2018-03-14T16:02:30.782Z,43.47
2018-03-14T16:04:59.104Z,42.21
2018-03-14T16:07:27.480Z,44.68
2018-03-14T16:09:55.012Z,43.68
2018-03-14T16:12:22.569Z,43.54
2018-03-14T16:14:49.893Z,44.57
2018-03-14T16:17:17.363Z,44.76
2018-03-14T16:19:44.790Z,43.96
2018-03-14T16:22:12.194Z,43.87
2018-03-14T16:24:39.755Z,44.91
2018-03-14T16:27:07.441Z,44.75
2018-03-14T16:29:35.084Z,45.43
2018-03-14T16:32:02.541Z,45.26
2018-03-14T16:34:29.938Z,45.63
2018-03-14T16:36:57.426Z,43.24
2018-03-14T16:39:25.362Z,40.91
2018-03-14T16:41:52.936Z,39.49
2018-03-14T16:44:20.900Z,40.71
2018-03-14T16:46:48.305Z,43.61
2018-03-14T16:49:15.759Z,44.50
2018-03-14T16:51:43.348Z,45.19
2018-03-14T16:54:10.797Z,47.04
2018-03-14T16:56:38.185Z,46.06
2018-03-14T16:59:05.647Z,46.87
2018-03-14T17:01:33.005Z,45.76
2018-03-14T17:04:01.085Z,44.64
2018-03-14T17:06:28.580Z,47.31
2018-03-14T17:08:56.576Z,45.76
2018-03-14T17:11:24.036Z,47.33
2018-03-14T17:13:51.443Z,47.84
2018-03-14T17:16:19.131Z,48.34
2018-03-14T17:18:46.638Z,47.83
2018-03-14T17:21:14.223Z,47.99
2018-03-14T17:23:41.707Z,47.66
2018-03-14T17:26:09.094Z,48.07
2018-03-14T17:28:36.477Z,48.05
2018-03-14T17:31:03.915Z,49.23
2018-03-14T17:33:31.311Z,48.14
2018-03-14T17:35:58.738Z,48.48
2018-03-14T17:38:26.787Z,48.62
2018-03-14T17:40:54.205Z,50.24
2018-03-14T17:43:21.614Z,49.70
2018-03-14T17:45:49.229Z,49.37
2018-03-14T17:48:18.509Z,48.88
2018-03-14T17:50:45.892Z,49.61
2018-03-14T17:53:13.326Z,51.15
2018-03-14T17:55:40.704Z,49.45
2018-03-14T17:58:08.125Z,50.86
2018-03-14T18:00:35.584Z,49.57
2018-03-14T18:03:02.989Z,51.17
2018-03-14T18:05:30.386Z,50.21
2018-03-14T18:07:57.769Z,50.33
2018-03-14T18:10:25.304Z,51.01
2018-03-14T18:12:52.685Z,51.22
2018-03-14T18:15:20.364Z,51.98
2018-03-14T18:17:49.795Z,51.94
2018-03-14T18:20:17.187Z,52.07
2018-03-14T18:22:44.646Z,51.41
2018-03-14T18:25:12.024Z,52.01
2018-03-14T18:27:39.498Z,52.20
2018-03-14T18:30:07.012Z,51.51
2018-03-14T18:32:34.623Z,51.89
2018-03-14T18:35:03.194Z,51.45
2018-03-14T18:37:30.601Z,51.30
2018-03-14T18:40:01.573Z,52.30
2018-03-14T18:42:28.981Z,53.21
2018-03-14T18:44:57.102Z,52.20
2018-03-14T18:47:24.539Z,52.88
2018-03-14T18:49:51.999Z,52.82
2018-03-14T18:52:19.897Z,52.73
2018-03-14T18:54:47.315Z,53.20
2018-03-14T18:57:14.717Z,53.54
2018-03-14T18:59:42.134Z,53.45
2018-03-14T19:02:09.572Z,53.72
2018-03-14T19:04:36.947Z,53.65
2018-03-14T19:07:04.393Z,52.95
2018-03-14T19:09:31.778Z,53.21
2018-03-14T19:11:59.256Z,53.20
2018-03-14T19:14:27.176Z,53.54
2018-03-14T19:16:54.556Z,53.76
2018-03-14T19:19:22.101Z,53.46
2018-03-14T19:21:49.511Z,53.03
2018-03-14T19:24:17.099Z,53.62
2018-03-14T19:26:44.553Z,53.15
2018-03-14T19:29:12.013Z,53.71
2018-03-14T19:31:47.586Z,53.67
2018-03-14T19:34:23.219Z,53.78
2018-03-14T19:36:50.912Z,54.32
2018-03-14T19:39:18.328Z,54.60
2018-03-14T19:41:45.757Z,55.01
2018-03-14T19:44:13.352Z,55.00
2018-03-14T19:46:41.530Z,54.56
2018-03-14T19:49:09.047Z,54.76
2018-03-14T19:51:36.439Z,55.70
2018-03-14T19:54:03.820Z,54.73
2018-03-14T19:56:31.385Z,55.24
2018-03-14T19:58:58.827Z,55.28
2018-03-14T20:01:26.345Z,55.55
2018-03-14T20:03:53.768Z,55.34
2018-03-14T20:06:21.173Z,55.48
2018-03-14T20:08:48.662Z,55.56
2018-03-14T20:11:15.999Z,54.92
2018-03-14T20:13:43.422Z,55.34
2018-03-14T20:16:11.013Z,54.98
2018-03-14T20:18:38.450Z,55.42
2018-03-14T20:21:06.000Z,54.78
2018-03-14T20:23:33.481Z,55.23
2018-03-14T20:26:00.940Z,55.89
2018-03-14T20:28:28.450Z,55.50
2018-03-14T20:30:56.930Z,55.89
2018-03-14T20:33:24.665Z,55.99
2018-03-14T20:35:52.092Z,56.87
2018-03-14T20:38:19.568Z,56.60
2018-03-14T20:40:47.051Z,56.81
2018-03-14T20:43:14.539Z,56.88
2018-03-14T20:45:41.927Z,56.94
2018-03-14T20:48:09.431Z,56.49
2018-03-14T20:50:36.854Z,57.15
2018-03-14T20:53:04.258Z,57.34
2018-03-14T20:55:31.930Z,56.67
2018-03-14T20:57:59.522Z,57.52
2018-03-14T21:00:27.584Z,57.80
2018-03-14T21:02:54.965Z,58.03
2018-03-14T21:05:23.258Z,57.68
2018-03-14T21:07:50.839Z,57.85
2018-03-14T21:10:18.244Z,58.00
2018-03-14T21:12:45.668Z,58.45
2018-03-14T21:15:18.710Z,58.03
2018-03-14T21:17:46.250Z,58.74
2018-03-14T21:20:13.718Z,58.86
2018-03-14T21:22:41.110Z,58.85
2018-03-14T21:25:08.610Z,58.83
2018-03-14T21:27:36.093Z,58.51
2018-03-14T21:30:03.481Z,58.83
2018-03-14T21:32:30.894Z,59.02
2018-03-14T21:35:01.639Z,58.54
2018-03-14T21:37:29.042Z,59.02
2018-03-14T21:39:56.509Z,59.19
2018-03-14T21:42:23.931Z,59.51
2018-03-14T21:44:51.344Z,59.01
2018-03-14T21:47:18.900Z,58.71
2018-03-14T21:49:46.628Z,59.28
2018-03-14T21:52:14.037Z,59.28
2018-03-14T21:54:49.504Z,58.80
2018-03-14T21:57:19.731Z,58.77
2018-03-14T21:59:54.108Z,58.79
2018-03-14T22:02:21.831Z,59.22
2018-03-14T22:04:49.264Z,59.36
2018-03-14T22:07:16.640Z,59.34
2018-03-14T22:09:44.073Z,59.10
2018-03-14T22:12:12.533Z,59.39
2018-03-14T22:14:39.911Z,59.42
2018-03-14T22:17:07.337Z,59.75
2018-03-14T22:19:34.744Z,59.32
2018-03-14T22:22:02.256Z,59.09
2018-03-14T22:24:29.787Z,59.56
2018-03-14T22:26:59.106Z,59.63
2018-03-14T22:29:26.576Z,59.18
2018-03-14T22:31:54.063Z,59.19
2018-03-14T22:34:21.906Z,59.37
2018-03-14T22:36:49.313Z,58.90
2018-03-14T22:39:20.482Z,59.29
2018-03-14T22:41:48.022Z,59.34
2018-03-14T22:44:15.402Z,59.36
2018-03-14T22:46:42.812Z,59.22
2018-03-14T22:49:11.030Z,59.54
2018-03-14T22:51:39.503Z,58.76
2018-03-14T22:54:06.924Z,59.15
2018-03-14T22:56:34.345Z,59.11
2018-03-14T22:59:01.818Z,58.62
2018-03-14T23:01:29.201Z,58.85
2018-03-14T23:03:57.617Z,58.61
2018-03-14T23:06:25.017Z,58.13
2018-03-14T23:08:52.516Z,57.99
2018-03-14T23:11:19.891Z,58.25
2018-03-14T23:13:47.351Z,58.04
2018-03-14T23:16:14.787Z,58.32
2018-03-14T23:18:42.368Z,57.95
2018-03-14T23:21:10.555Z,58.32
2018-03-14T23:23:37.971Z,58.70
2018-03-14T23:26:05.469Z,58.16
2018-03-14T23:28:32.884Z,58.01
2018-03-14T23:31:00.882Z,58.53
2018-03-14T23:33:28.336Z,58.75
2018-03-14T23:35:55.857Z,58.63
2018-03-14T23:38:23.600Z,58.46
2018-03-14T23:40:51.301Z,58.69
2018-03-14T23:43:20.822Z,58.38
2018-03-14T23:45:48.248Z,58.60
2018-03-14T23:48:15.832Z,58.86
2018-03-14T23:50:43.416Z,58.38
2018-03-14T23:53:10.955Z,58.50
2018-03-14T23:55:38.372Z,58.53
2018-03-14T23:58:05.788Z,58.74
